Time;durP1;ratioP1;P1;durP2;ratioP2;P2;SDS_P1;SDS_P2;PMS_P1;PMS_P2;Temp;Humidity;BMP_temperature;BMP_pressure;BME280_temperature;BME280_humidity;BME280_pressure;Samples;Min_cycle;Max_cycle;Signal;HPM_P1;HPM_P2
2023/11/12 00:02:03;;;;;;;6.82;3.42;;;4.90;99.90;;;;;;7523073;19;20892;-71
2023/11/12 00:04:36;;;;;;;5.15;3.63;;;4.80;99.90;;;;;;7498450;19;20022;-70
2023/11/12 00:07:08;;;;;;;4.75;3.42;;;4.80;99.90;;;;;;7491597;19;20025;-71
2023/11/12 00:09:40;;;;;;;5.28;3.25;;;4.80;99.90;;;;;;7530418;19;20015;-71
2023/11/12 00:12:13;;;;;;;4.43;3.03;;;4.80;99.90;;;;;;7537417;19;20029;-71
2023/11/12 00:14:45;;;;;;;4.70;3.20;;;4.80;99.90;;;;;;7518140;19;20019;-71
2023/11/12 00:17:18;;;;;;;3.72;2.67;;;4.80;99.90;;;;;;7541779;19;20659;-70
2023/11/12 00:19:50;;;;;;;4.55;2.88;;;4.90;99.90;;;;;;7557434;19;20119;-71
2023/11/12 00:22:23;;;;;;;6.80;3.60;;;4.80;99.90;;;;;;7545527;19;20057;-71
2023/11/12 00:24:55;;;;;;;7.68;3.58;;;4.80;99.90;;;;;;7550228;19;20021;-71
2023/11/12 00:27:27;;;;;;;7.97;3.10;;;4.80;99.90;;;;;;7530996;19;20346;-71
2023/11/12 00:30:00;;;;;;;8.18;3.15;;;4.80;99.90;;;;;;7546121;19;20026;-71
2023/11/12 00:32:33;;;;;;;11.32;3.97;;;4.80;99.90;;;;;;7546845;19;20014;-70
2023/11/12 00:35:06;;;;;;;9.63;4.33;;;4.80;99.90;;;;;;7534246;19;20022;-70
2023/11/12 00:37:39;;;;;;;6.05;3.33;;;4.70;99.90;;;;;;7549138;19;20087;-70
2023/11/12 00:40:14;;;;;;;5.03;2.50;;;4.80;99.90;;;;;;7533981;19;20579;-70
2023/11/12 00:42:46;;;;;;;3.92;1.85;;;4.70;99.90;;;;;;7555569;19;20010;-70
2023/11/12 00:45:18;;;;;;;3.47;2.30;;;4.60;99.90;;;;;;7521053;19;20019;-71
2023/11/12 00:47:51;;;;;;;3.88;1.98;;;4.60;99.90;;;;;;7523348;19;20369;-69
2023/11/12 00:50:24;;;;;;;3.97;2.45;;;4.70;99.90;;;;;;7506711;19;20018;-69
2023/11/12 00:52:56;;;;;;;2.38;1.63;;;4.60;99.90;;;;;;7499231;19;21892;-69
2023/11/12 00:55:30;;;;;;;3.15;2.13;;;4.60;99.90;;;;;;7522713;19;20018;-69
2023/11/12 00:58:02;;;;;;;5.70;2.03;;;4.70;99.90;;;;;;7544456;19;20010;-69
2023/11/12 01:00:34;;;;;;;3.58;2.38;;;4.60;99.90;;;;;;7525994;19;20021;-69
2023/11/12 01:03:08;;;;;;;3.97;2.15;;;4.50;99.90;;;;;;7548462;19;20022;-69
2023/11/12 01:05:41;;;;;;;5.00;2.95;;;4.50;99.90;;;;;;7548500;19;20007;-69
2023/11/12 01:08:14;;;;;;;4.00;2.55;;;4.50;99.90;;;;;;7542774;19;20082;-69
2023/11/12 01:10:47;;;;;;;4.38;2.20;;;4.50;99.90;;;;;;7532978;19;20035;-69
2023/11/12 01:13:20;;;;;;;3.60;2.33;;;4.50;99.90;;;;;;7538082;19;20021;-69
2023/11/12 01:15:53;;;;;;;4.38;2.28;;;4.50;99.90;;;;;;7550480;19;21108;-69
2023/11/12 01:18:25;;;;;;;3.33;2.10;;;4.50;99.90;;;;;;7544023;19;20025;-70
2023/11/12 01:20:58;;;;;;;7.35;2.50;;;4.60;99.90;;;;;;7550830;19;20025;-69
2023/11/12 01:23:30;;;;;;;2.90;2.50;;;4.60;99.90;;;;;;7538529;19;20039;-69
2023/11/12 01:26:03;;;;;;;5.53;2.50;;;4.50;99.90;;;;;;7543170;19;20010;-69
2023/11/12 01:28:36;;;;;;;2.97;2.30;;;4.40;99.90;;;;;;7539357;19;21392;-71
2023/11/12 01:31:08;;;;;;;3.72;2.40;;;4.40;99.90;;;;;;7541066;19;20303;-68
2023/11/12 01:33:41;;;;;;;5.57;2.72;;;4.50;99.90;;;;;;7540118;19;20041;-71
2023/11/12 01:36:13;;;;;;;4.80;2.30;;;4.60;99.90;;;;;;7548486;19;20014;-71
2023/11/12 01:38:46;;;;;;;3.20;2.10;;;4.60;99.90;;;;;;7510031;19;20022;-71
2023/11/12 01:41:19;;;;;;;5.68;1.95;;;4.60;99.90;;;;;;7541461;19;20022;-71
2023/11/12 01:43:51;;;;;;;3.50;2.20;;;4.50;99.90;;;;;;7532448;19;20105;-71
2023/11/12 01:46:25;;;;;;;7.18;2.08;;;4.50;99.90;;;;;;7526763;19;20020;-71
2023/11/12 01:48:59;;;;;;;8.20;2.30;;;4.50;99.90;;;;;;7543894;19;20018;-71
2023/11/12 01:51:33;;;;;;;6.45;2.53;;;4.60;99.90;;;;;;7521654;19;20346;-71
2023/11/12 01:54:07;;;;;;;4.63;2.20;;;4.60;99.90;;;;;;7537013;19;20108;-71
2023/11/12 01:56:40;;;;;;;3.78;2.30;;;4.60;99.90;;;;;;7547299;19;20068;-70
2023/11/12 01:59:14;;;;;;;4.07;2.38;;;4.60;99.90;;;;;;7535554;19;20014;-71
2023/11/12 02:01:46;;;;;;;3.97;2.40;;;4.50;99.90;;;;;;7541056;19;20014;-70
2023/11/12 02:04:20;;;;;;;3.25;2.42;;;4.60;99.90;;;;;;7527959;19;20065;-70
2023/11/12 02:06:53;;;;;;;3.42;2.28;;;4.60;99.90;;;;;;7511286;19;20028;-70
2023/11/12 02:09:26;;;;;;;5.10;2.20;;;4.60;99.90;;;;;;7533535;19;20015;-70
2023/11/12 02:11:58;;;;;;;6.97;2.58;;;4.60;99.90;;;;;;7537571;19;20105;-70
2023/11/12 02:14:31;;;;;;;4.43;2.15;;;4.60;99.90;;;;;;7488526;19;20022;-70
2023/11/12 02:17:04;;;;;;;5.25;2.22;;;4.60;99.90;;;;;;7511080;19;20018;-70
2023/11/12 02:19:36;;;;;;;4.10;2.80;;;4.60;99.90;;;;;;7530698;19;20451;-71
2023/11/12 02:22:09;;;;;;;3.42;2.17;;;4.60;99.90;;;;;;7538228;19;20022;-70
2023/11/12 02:24:41;;;;;;;4.07;2.30;;;4.70;99.90;;;;;;7532246;19;20022;-71
2023/11/12 02:27:14;;;;;;;3.95;2.17;;;4.60;99.90;;;;;;7524128;19;20052;-71
2023/11/12 02:29:49;;;;;;;6.72;3.15;;;4.60;99.90;;;;;;7538614;19;20011;-71
2023/11/12 02:32:22;;;;;;;4.55;2.72;;;4.60;99.90;;;;;;7528147;19;20060;-70
2023/11/12 02:34:55;;;;;;;3.95;2.60;;;4.50;99.90;;;;;;7527151;19;20025;-70
2023/11/12 02:37:28;;;;;;;3.72;2.42;;;4.50;99.90;;;;;;7532933;19;22014;-70
2023/11/12 02:40:01;;;;;;;4.18;2.50;;;4.40;99.90;;;;;;7538165;19;20018;-71
2023/11/12 02:42:37;;;;;;;4.95;2.83;;;4.40;99.90;;;;;;7525972;19;20562;-71
2023/11/12 02:45:10;;;;;;;4.03;2.45;;;4.30;99.90;;;;;;7512036;19;20014;-70
2023/11/12 02:47:43;;;;;;;4.55;2.80;;;4.30;99.90;;;;;;7543110;19;22047;-71
2023/11/12 02:50:30;;;;;;;3.73;2.93;;;4.20;99.90;;;;;;7538409;19;20014;-70
2023/11/12 02:53:05;;;;;;;6.85;4.40;;;4.20;99.90;;;;;;7533526;19;20037;-70
2023/11/12 02:55:38;;;;;;;9.95;4.22;;;4.00;99.90;;;;;;7512964;19;20018;-70
2023/11/12 02:58:11;;;;;;;6.57;4.28;;;3.90;99.90;;;;;;7529152;19;20176;-70
2023/11/12 03:00:44;;;;;;;7.70;4.80;;;3.90;99.90;;;;;;7531850;19;20022;-70
2023/11/12 03:03:17;;;;;;;7.60;4.43;;;3.80;99.90;;;;;;7532117;19;20423;-70
2023/11/12 03:05:50;;;;;;;9.13;5.13;;;3.90;99.90;;;;;;7537006;19;20040;-69
2023/11/12 03:08:22;;;;;;;8.50;4.45;;;3.90;99.90;;;;;;7537423;19;21757;-69
2023/11/12 03:10:54;;;;;;;6.20;3.67;;;3.80;99.90;;;;;;7529936;19;20022;-69
2023/11/12 03:13:27;;;;;;;6.78;3.83;;;3.80;99.90;;;;;;7537937;19;20010;-69
2023/11/12 03:16:00;;;;;;;4.47;2.60;;;3.70;99.90;;;;;;7506246;19;20026;-69
2023/11/12 03:18:32;;;;;;;;;;;3.70;99.90;;;;;;7519178;19;20014;-69
2023/11/12 03:21:05;;;;;;;6.13;2.25;;;3.70;99.90;;;;;;7550848;19;19918;-70
2023/11/12 03:23:39;;;;;;;3.03;2.13;;;3.60;99.90;;;;;;7550084;19;20021;-69
2023/11/12 03:26:11;;;;;;;5.53;2.72;;;3.60;99.90;;;;;;7521673;19;20030;-69
2023/11/12 03:28:43;;;;;;;6.47;3.33;;;3.50;99.90;;;;;;7521394;19;20342;-71
2023/11/12 03:31:16;;;;;;;3.65;2.95;;;3.60;99.90;;;;;;7525931;19;21985;-69
2023/11/12 03:33:49;;;;;;;3.47;1.90;;;3.60;99.90;;;;;;7518326;19;20592;-71
2023/11/12 03:36:21;;;;;;;3.25;1.77;;;3.50;99.90;;;;;;7534602;19;20041;-71
2023/11/12 03:38:54;;;;;;;2.28;1.80;;;3.50;99.90;;;;;;7524979;19;20014;-71
2023/11/12 03:41:26;;;;;;;3.08;2.00;;;3.40;99.90;;;;;;7528751;19;20070;-70
2023/11/12 03:43:59;;;;;;;2.60;2.03;;;3.40;99.90;;;;;;7479075;19;20019;-71
2023/11/12 03:46:31;;;;;;;5.10;1.83;;;3.30;99.90;;;;;;7518858;19;20110;-71
2023/11/12 03:49:04;;;;;;;4.68;2.00;;;3.30;99.90;;;;;;7522766;19;20015;-71
2023/11/12 03:51:37;;;;;;;6.15;2.58;;;3.30;99.90;;;;;;7521180;19;20030;-71
2023/11/12 03:54:10;;;;;;;2.13;1.50;;;3.10;99.90;;;;;;7527018;19;20531;-71
2023/11/12 03:56:43;;;;;;;3.75;2.15;;;3.20;99.90;;;;;;7511003;19;20015;-70
2023/11/12 03:59:16;;;;;;;3.28;1.80;;;3.20;99.90;;;;;;7494624;19;20022;-71
2023/11/12 04:01:48;;;;;;;5.40;2.03;;;3.20;99.90;;;;;;7507654;19;21545;-71
2023/11/12 04:04:22;;;;;;;2.47;1.75;;;3.10;99.90;;;;;;7511216;19;20010;-71
2023/11/12 04:06:54;;;;;;;4.32;2.15;;;3.10;99.90;;;;;;7530529;19;20840;-71
2023/11/12 04:09:27;;;;;;;5.05;1.75;;;2.90;99.90;;;;;;7522427;19;20026;-71
2023/11/12 04:11:59;;;;;;;2.72;2.00;;;2.80;99.90;;;;;;7517420;19;20014;-72
2023/11/12 04:14:31;;;;;;;1.80;1.70;;;2.80;99.90;;;;;;7512264;19;20030;-72
2023/11/12 04:17:04;;;;;;;1.80;1.30;;;2.70;99.90;;;;;;7512005;19;20920;-72
2023/11/12 04:19:39;;;;;;;;;;;2.80;99.90;;;;;;7529092;19;20018;-69
2023/11/12 04:22:11;;;;;;;2.50;1.13;;;2.80;99.90;;;;;;7543506;19;19923;-72
2023/11/12 04:24:43;;;;;;;1.92;1.50;;;2.80;99.90;;;;;;7545559;19;20039;-70
2023/11/12 04:27:16;;;;;;;3.88;2.00;;;2.70;99.90;;;;;;7526730;19;20033;-72
2023/11/12 04:29:48;;;;;;;4.03;1.40;;;2.70;99.90;;;;;;7549723;19;20094;-72
2023/11/12 04:32:20;;;;;;;2.38;1.60;;;2.80;99.90;;;;;;7505798;19;20052;-72
2023/11/12 04:34:54;;;;;;;2.63;1.63;;;2.70;99.90;;;;;;7536846;19;20026;-72
2023/11/12 04:37:28;;;;;;;2.25;1.30;;;2.80;99.90;;;;;;7526289;19;20925;-72
2023/11/12 04:40:00;;;;;;;1.77;1.35;;;2.80;99.90;;;;;;7544011;19;20030;-72
2023/11/12 04:42:33;;;;;;;1.92;1.60;;;2.70;99.90;;;;;;7532230;19;20018;-70
2023/11/12 04:45:06;;;;;;;4.43;1.73;;;2.60;99.90;;;;;;7531170;19;21719;-72
2023/11/12 04:47:39;;;;;;;4.90;1.47;;;2.50;99.90;;;;;;7543371;19;20015;-72
2023/11/12 04:50:11;;;;;;;4.13;1.65;;;2.40;99.90;;;;;;7545956;19;20278;-72
2023/11/12 04:52:44;;;;;;;3.35;2.00;;;2.40;99.90;;;;;;7527416;19;20018;-72
2023/11/12 04:55:16;;;;;;;1.92;1.50;;;2.40;99.90;;;;;;7502528;19;20026;-72
2023/11/12 04:57:48;;;;;;;2.70;1.80;;;2.30;99.90;;;;;;7541545;19;20106;-72
2023/11/12 05:00:22;;;;;;;6.13;1.50;;;2.30;99.90;;;;;;7523446;19;20010;-71
2023/11/12 05:02:55;;;;;;;1.73;1.33;;;2.20;99.90;;;;;;7524369;19;21057;-70
2023/11/12 05:05:27;;;;;;;2.67;1.80;;;2.20;99.90;;;;;;7533449;19;20022;-70
2023/11/12 05:07:59;;;;;;;1.95;1.65;;;2.20;99.90;;;;;;7547887;19;20037;-72
2023/11/12 05:10:32;;;;;;;3.65;1.42;;;2.20;99.90;;;;;;7516066;19;20048;-70
2023/11/12 05:13:16;;;;;;;1.40;0.90;;;2.20;99.90;;;;;;7543102;19;20038;-70
2023/11/12 05:15:49;;;;;;;2.25;1.52;;;2.10;99.90;;;;;;7519826;19;20018;-72
2023/11/12 05:18:21;;;;;;;2.42;1.67;;;2.10;99.90;;;;;;7542576;19;20055;-70
2023/11/12 05:20:53;;;;;;;2.08;1.35;;;2.10;99.90;;;;;;7530239;19;21685;-71
2023/11/12 05:23:26;;;;;;;3.75;1.63;;;2.00;99.90;;;;;;7547108;19;20025;-71
2023/11/12 05:26:02;;;;;;;2.17;1.55;;;2.00;99.90;;;;;;7520754;19;20052;-71
2023/11/12 05:28:35;;;;;;;2.13;1.30;;;1.90;99.90;;;;;;7509887;19;20018;-71
2023/11/12 05:31:07;;;;;;;2.45;1.60;;;1.90;99.90;;;;;;7549098;19;20653;-72
2023/11/12 05:33:39;;;;;;;2.58;1.60;;;1.90;99.90;;;;;;7540337;19;20034;-72
2023/11/12 05:36:12;;;;;;;2.47;1.45;;;1.90;99.90;;;;;;7521790;19;20014;-71
2023/11/12 05:38:44;;;;;;;2.13;1.40;;;1.90;99.90;;;;;;7528379;19;20011;-72
2023/11/12 05:41:17;;;;;;;6.72;1.73;;;1.90;99.90;;;;;;7524118;19;20216;-71
2023/11/12 05:43:50;;;;;;;1.83;1.40;;;1.90;99.90;;;;;;7512775;19;20018;-71
2023/11/12 05:46:22;;;;;;;3.03;1.75;;;1.80;99.90;;;;;;7533936;19;20686;-72
2023/11/12 05:48:55;;;;;;;1.70;1.30;;;1.80;99.90;;;;;;7535372;19;20018;-71
2023/11/12 05:51:27;;;;;;;2.25;1.83;;;1.90;99.90;;;;;;7521670;19;20678;-71
2023/11/12 05:53:59;;;;;;;2.70;2.00;;;1.90;99.90;;;;;;7538998;19;20018;-70
2023/11/12 05:56:32;;;;;;;6.63;3.22;;;1.90;99.90;;;;;;7522907;19;20007;-72
2023/11/12 05:59:04;;;;;;;3.55;2.40;;;2.00;99.90;;;;;;7540153;19;20029;-70
2023/11/12 06:01:37;;;;;;;2.28;1.75;;;2.00;99.90;;;;;;7531064;19;21968;-73
2023/11/12 06:04:09;;;;;;;2.70;1.35;;;2.00;99.90;;;;;;7526010;19;21184;-70
2023/11/12 06:06:42;;;;;;;2.63;1.60;;;2.00;99.90;;;;;;7523464;19;20006;-72
2023/11/12 06:09:15;;;;;;;5.55;1.42;;;1.90;99.90;;;;;;7527846;19;20023;-72
2023/11/12 06:11:47;;;;;;;2.17;1.80;;;1.90;99.90;;;;;;7508943;19;20015;-72
2023/11/12 06:14:21;;;;;;;2.22;1.52;;;1.80;99.90;;;;;;7526506;19;20124;-72
2023/11/12 06:16:53;;;;;;;5.70;1.52;;;1.90;99.90;;;;;;7517319;19;20026;-72
2023/11/12 06:19:26;;;;;;;2.28;1.90;;;2.00;99.90;;;;;;7514158;19;20549;-72
2023/11/12 06:22:01;;;;;;;2.70;1.60;;;2.00;99.90;;;;;;7523970;19;20527;-72
2023/11/12 06:24:33;;;;;;;4.00;2.15;;;2.00;99.90;;;;;;7525178;19;20033;-72
2023/11/12 06:27:06;;;;;;;2.65;1.75;;;1.90;99.90;;;;;;7500960;19;20018;-72
2023/11/12 06:29:38;;;;;;;4.00;1.92;;;1.90;99.90;;;;;;7535499;19;20028;-71
2023/11/12 06:32:11;;;;;;;2.30;1.90;;;1.90;99.90;;;;;;7530962;19;21283;-70
2023/11/12 06:34:43;;;;;;;3.60;1.90;;;1.90;99.90;;;;;;7513400;19;20426;-71
2023/11/12 06:37:16;;;;;;;2.70;1.90;;;1.80;99.90;;;;;;7541802;19;20022;-70
2023/11/12 06:39:48;;;;;;;5.32;2.13;;;1.80;99.90;;;;;;7533646;19;21895;-73
2023/11/12 06:42:23;;;;;;;4.07;2.40;;;1.80;99.90;;;;;;7482424;19;20011;-70
2023/11/12 06:44:55;;;;;;;4.55;2.30;;;1.80;99.90;;;;;;7488292;19;20406;-71
2023/11/12 06:47:27;;;;;;;3.05;2.00;;;1.80;99.90;;;;;;7524500;19;20022;-70
2023/11/12 06:50:00;;;;;;;2.83;1.98;;;1.90;99.90;;;;;;7522628;19;20018;-70
2023/11/12 06:52:32;;;;;;;3.38;2.00;;;1.90;99.90;;;;;;7488273;19;20014;-71
2023/11/12 06:55:05;;;;;;;8.15;3.20;;;1.90;99.90;;;;;;7516130;19;20026;-74
2023/11/12 06:57:38;;;;;;;5.32;3.22;;;1.90;99.90;;;;;;7520435;19;20007;-70
2023/11/12 07:00:12;;;;;;;2.90;1.98;;;2.00;99.90;;;;;;7473995;19;20044;-72
2023/11/12 07:02:44;;;;;;;4.30;2.50;;;2.00;99.90;;;;;;7527970;19;20018;-72
2023/11/12 07:05:16;;;;;;;3.17;2.50;;;2.10;99.90;;;;;;7522678;19;20086;-72
2023/11/12 07:07:49;;;;;;;6.13;2.30;;;2.10;99.90;;;;;;7508976;19;20018;-71
2023/11/12 07:10:21;;;;;;;2.97;2.33;;;2.10;99.90;;;;;;7511982;19;20032;-72
2023/11/12 07:12:54;;;;;;;4.05;2.45;;;2.10;99.90;;;;;;7527726;19;20018;-71
2023/11/12 07:15:26;;;;;;;3.75;2.47;;;2.30;99.90;;;;;;7496470;19;20018;-71
2023/11/12 07:17:59;;;;;;;3.03;2.20;;;2.30;99.90;;;;;;7497784;19;20709;-71
2023/11/12 07:20:32;;;;;;;5.67;2.70;;;2.30;99.90;;;;;;7516656;19;20006;-71
2023/11/12 07:23:04;;;;;;;3.50;2.23;;;2.40;99.90;;;;;;7489325;19;20286;-70
2023/11/12 07:25:37;;;;;;;4.57;2.80;;;2.40;99.90;;;;;;7455787;19;20056;-72
2023/11/12 07:28:09;;;;;;;7.78;2.63;;;2.50;99.90;;;;;;7462381;19;20030;-72
2023/11/12 07:30:41;;;;;;;4.10;2.70;;;2.50;99.90;;;;;;7427044;19;20524;-72
2023/11/12 07:33:14;;;;;;;4.10;2.70;;;2.60;99.90;;;;;;7467922;19;20015;-72
2023/11/12 07:35:48;;;;;;;4.47;2.70;;;2.70;99.90;;;;;;7449404;19;20033;-69
2023/11/12 07:38:21;;;;;;;3.38;2.30;;;2.80;99.90;;;;;;7484306;19;21634;-72
2023/11/12 07:40:53;;;;;;;4.95;2.90;;;2.80;99.90;;;;;;7500743;19;21512;-72
2023/11/12 07:43:25;;;;;;;5.70;3.53;;;2.80;99.90;;;;;;7510731;19;20671;-72
2023/11/12 07:45:58;;;;;;;7.22;3.58;;;2.90;99.90;;;;;;7511262;19;20536;-71
2023/11/12 07:48:31;;;;;;;7.85;3.35;;;2.90;99.90;;;;;;7461927;19;22019;-72
2023/11/12 07:51:04;;;;;;;8.23;3.20;;;2.90;99.90;;;;;;7499110;19;20274;-71
2023/11/12 07:53:37;;;;;;;5.82;3.15;;;2.90;99.90;;;;;;7476213;19;20047;-71
2023/11/12 07:56:10;;;;;;;8.45;4.50;;;2.90;99.90;;;;;;7489602;19;20017;-70
2023/11/12 07:58:44;;;;;;;6.60;4.05;;;3.00;99.90;;;;;;7485854;19;20018;-71
2023/11/12 08:01:17;;;;;;;8.30;2.83;;;3.10;99.90;;;;;;7450487;19;20018;-71
2023/11/12 08:03:49;;;;;;;4.20;3.03;;;3.10;99.90;;;;;;7447562;19;21333;-71
2023/11/12 08:06:22;;;;;;;3.70;2.35;;;3.20;99.90;;;;;;7474666;19;20619;-71
2023/11/12 08:08:54;;;;;;;2.20;2.00;;;3.20;99.90;;;;;;7477477;19;20109;-70
2023/11/12 08:11:27;;;;;;;3.67;2.22;;;3.30;99.90;;;;;;7521584;19;20524;-71
2023/11/12 08:14:01;;;;;;;3.92;2.40;;;3.30;99.90;;;;;;7472233;19;20115;-70
2023/11/12 08:16:34;;;;;;;3.83;2.58;;;3.30;99.90;;;;;;7507657;19;20014;-70
2023/11/12 08:19:06;;;;;;;3.35;2.55;;;3.40;99.90;;;;;;7525979;19;20022;-70
2023/11/12 08:21:39;;;;;;;4.93;2.83;;;3.40;99.90;;;;;;7467676;19;20026;-70
2023/11/12 08:24:11;;;;;;;5.25;3.35;;;3.50;99.90;;;;;;7469919;19;20948;-70
2023/11/12 08:26:43;;;;;;;8.00;3.35;;;3.60;99.90;;;;;;7473578;19;20006;-70
2023/11/12 08:29:16;;;;;;;8.88;3.20;;;3.70;99.90;;;;;;7460997;19;20019;-71
2023/11/12 08:31:49;;;;;;;5.20;2.72;;;3.70;99.90;;;;;;7483049;19;20384;-71
2023/11/12 08:34:22;;;;;;;5.22;2.88;;;3.80;99.90;;;;;;7464648;19;20018;-72
2023/11/12 08:36:55;;;;;;;4.68;2.72;;;3.80;99.90;;;;;;7418616;19;20023;-72
2023/11/12 08:39:27;;;;;;;3.80;1.98;;;3.90;99.90;;;;;;7483611;19;21163;-72
2023/11/12 08:42:00;;;;;;;6.55;2.15;;;4.00;99.90;;;;;;7500774;19;20014;-72
2023/11/12 08:44:32;;;;;;;3.55;2.08;;;4.10;99.90;;;;;;7501535;19;20873;-72
2023/11/12 08:47:05;;;;;;;3.13;1.80;;;4.10;99.90;;;;;;7501630;19;20018;-72
2023/11/12 08:49:37;;;;;;;3.78;2.75;;;4.20;99.90;;;;;;7513842;19;20271;-72
2023/11/12 08:52:11;;;;;;;4.20;2.53;;;4.20;99.90;;;;;;7511679;19;20692;-72
2023/11/12 08:54:45;;;;;;;3.35;2.47;;;4.20;99.90;;;;;;7536871;19;20819;-72
2023/11/12 08:57:18;;;;;;;3.55;2.50;;;4.40;99.90;;;;;;7524936;19;20125;-70
2023/11/12 08:59:52;;;;;;;4.35;2.42;;;4.40;99.90;;;;;;7475412;19;20014;-71
2023/11/12 09:02:27;;;;;;;3.80;3.00;;;4.40;99.90;;;;;;7461129;19;20014;-71
2023/11/12 09:05:01;;;;;;;6.57;2.35;;;4.50;99.90;;;;;;7484206;19;20018;-72
2023/11/12 09:07:34;;;;;;;4.15;2.70;;;4.50;99.90;;;;;;7501965;19;20006;-71
2023/11/12 09:10:07;;;;;;;5.45;3.00;;;4.60;99.90;;;;;;7474608;19;20029;-72
2023/11/12 09:12:40;;;;;;;6.63;2.90;;;4.60;99.90;;;;;;7518612;19;20458;-72
2023/11/12 09:15:13;;;;;;;4.07;2.73;;;4.70;99.90;;;;;;7488550;19;20014;-71
2023/11/12 09:17:46;;;;;;;5.10;3.03;;;4.80;99.90;;;;;;7474218;19;20021;-70
2023/11/12 09:20:19;;;;;;;4.07;2.50;;;4.80;99.90;;;;;;7466228;19;21693;-69
2023/11/12 09:22:52;;;;;;;7.05;2.88;;;4.90;99.90;;;;;;7450123;19;20015;-71
2023/11/12 09:25:24;;;;;;;2.95;1.98;;;4.90;99.90;;;;;;7425784;19;23754;-73
2023/11/12 09:27:56;;;;;;;4.25;1.90;;;5.00;99.90;;;;;;7476755;19;21095;-74
2023/11/12 09:30:31;;;;;;;3.60;1.52;;;5.00;99.90;;;;;;7478392;19;20605;-75
2023/11/12 09:33:23;;;;;;;;;;;5.10;99.90;;;;;;7505782;19;20631;-71
2023/11/12 09:35:55;;;;;;;2.17;1.42;;;5.10;99.90;;;;;;7476418;19;19919;-73
2023/11/12 09:38:28;;;;;;;5.30;1.23;;;5.20;99.90;;;;;;7453849;19;20144;-72
2023/11/12 09:41:03;;;;;;;18.70;9.02;;;5.30;99.90;;;;;;7441665;19;21769;-70
2023/11/12 09:43:36;;;;;;;2.63;1.75;;;5.40;99.90;;;;;;7485525;19;20732;-71
2023/11/12 09:46:09;;;;;;;2.65;1.98;;;5.50;99.90;;;;;;7471348;19;20019;-71
2023/11/12 09:48:42;;;;;;;3.70;1.57;;;5.60;99.90;;;;;;7517326;19;20018;-70
2023/11/12 09:51:16;;;;;;;2.35;1.65;;;5.70;99.90;;;;;;7463170;19;20283;-70
2023/11/12 09:53:50;;;;;;;2.10;1.73;;;5.70;99.90;;;;;;7461160;19;20025;-69
2023/11/12 09:56:24;;;;;;;3.97;1.33;;;5.80;99.90;;;;;;7500993;19;20037;-69
2023/11/12 09:58:57;;;;;;;4.35;1.63;;;5.80;99.90;;;;;;7496682;19;20447;-71
2023/11/12 10:01:31;;;;;;;1.65;1.50;;;5.90;99.90;;;;;;7512676;19;20021;-71
2023/11/12 10:04:04;;;;;;;2.25;1.50;;;5.90;99.90;;;;;;7488937;19;20041;-71
2023/11/12 10:06:38;;;;;;;2.50;1.52;;;5.90;99.90;;;;;;7449122;19;20086;-71
2023/11/12 10:09:11;;;;;;;2.25;1.50;;;5.90;99.90;;;;;;7433304;19;20952;-71
2023/11/12 10:11:43;;;;;;;1.75;1.40;;;5.90;99.90;;;;;;7431540;19;20014;-71
2023/11/12 10:14:15;;;;;;;1.83;1.33;;;5.90;99.90;;;;;;7475527;19;20022;-72
2023/11/12 10:16:47;;;;;;;2.03;1.40;;;6.00;99.90;;;;;;7468187;19;20018;-71
2023/11/12 10:19:20;;;;;;;3.40;1.90;;;6.00;99.90;;;;;;7462897;19;20435;-71
2023/11/12 10:21:56;;;;;;;2.72;1.50;;;6.00;99.90;;;;;;7433105;19;20563;-70
2023/11/12 10:24:30;;;;;;;3.67;1.70;;;6.00;99.90;;;;;;7470860;19;20029;-71
2023/11/12 10:27:04;;;;;;;;;;;6.00;99.90;;;;;;7462936;19;20017;-71
2023/11/12 10:29:36;;;;;;;4.87;2.87;;;6.10;99.90;;;;;;7507436;19;19927;-71
2023/11/12 10:32:24;;;;;;;6.32;2.72;;;6.10;99.90;;;;;;7502758;19;22742;-71
2023/11/12 10:34:57;;;;;;;4.60;2.42;;;6.10;99.90;;;;;;7486957;19;20020;-71
2023/11/12 10:37:30;;;;;;;5.78;2.70;;;6.20;99.90;;;;;;7432331;19;20010;-71
2023/11/12 10:40:08;;;;;;;5.32;2.08;;;6.40;99.90;;;;;;7444751;19;20108;-71
2023/11/12 10:42:41;;;;;;;5.32;2.70;;;6.40;99.90;;;;;;7463565;19;20022;-71
2023/11/12 10:45:16;;;;;;;4.70;2.20;;;6.50;99.90;;;;;;7387073;19;20022;-71
2023/11/12 10:47:53;;;;;;;4.03;2.67;;;6.50;99.90;;;;;;7470860;19;20018;-71
2023/11/12 10:50:28;;;;;;;4.55;2.42;;;6.50;99.90;;;;;;7457334;19;20025;-71
2023/11/12 10:53:01;;;;;;;4.72;2.60;;;6.50;99.90;;;;;;7451121;19;20022;-71
2023/11/12 10:55:35;;;;;;;3.58;2.45;;;6.50;99.90;;;;;;7440347;19;20018;-72
2023/11/12 10:58:10;;;;;;;4.55;2.40;;;6.50;99.90;;;;;;7474505;19;20101;-72
2023/11/12 11:00:47;;;;;;;2.97;2.22;;;6.60;99.90;;;;;;7444587;19;20018;-71
2023/11/12 11:03:19;;;;;;;3.45;2.10;;;6.70;99.90;;;;;;7464353;19;20018;-72
2023/11/12 11:05:55;;;;;;;3.65;2.13;;;6.80;99.90;;;;;;7401516;19;20018;-71
2023/11/12 11:08:29;;;;;;;4.20;2.35;;;6.80;99.90;;;;;;7482964;19;20035;-73
2023/11/12 11:11:04;;;;;;;3.88;2.28;;;6.80;99.90;;;;;;7449501;19;20022;-73
2023/11/12 11:13:42;;;;;;;3.97;2.08;;;6.90;99.90;;;;;;7416837;19;20006;-73
2023/11/12 11:16:46;;;;;;;5.78;2.30;;;6.90;99.90;;;;;;7462893;19;21186;-74
2023/11/12 11:19:43;;;;;;;3.97;2.08;;;7.00;99.90;;;;;;7451586;19;20865;-74
2023/11/12 11:22:26;;;;;;;3.50;2.47;;;6.90;99.90;;;;;;7459982;19;20464;-74
2023/11/12 11:25:19;;;;;;;3.15;2.22;;;7.00;99.90;;;;;;7453951;19;20021;-73
2023/11/12 11:28:34;;;;;;;3.97;2.65;;;7.00;99.90;;;;;;7453083;19;20014;-71
2023/11/12 11:31:10;;;;;;;;;;;7.00;99.90;;;;;;7433236;19;20122;-71
2023/11/12 11:33:47;;;;;;;4.93;2.47;;;7.10;99.90;;;;;;7450407;19;22163;-71
2023/11/12 11:36:25;;;;;;;3.92;2.50;;;7.00;99.90;;;;;;7454391;19;20019;-74
2023/11/12 11:39:06;;;;;;;3.92;2.17;;;7.00;99.90;;;;;;7427629;19;21274;-71
2023/11/12 11:41:42;;;;;;;5.30;2.00;;;7.10;99.90;;;;;;7494449;19;20029;-72
2023/11/12 11:44:44;;;;;;;4.53;2.28;;;7.00;99.90;;;;;;7435899;19;21407;-73
2023/11/12 11:47:22;;;;;;;3.22;2.15;;;7.10;99.90;;;;;;7516917;19;20033;-75
2023/11/12 11:49:58;;;;;;;5.45;2.10;;;7.20;99.90;;;;;;7488424;19;20014;-75
2023/11/12 11:52:32;;;;;;;6.72;2.20;;;7.20;99.90;;;;;;7494775;19;20018;-73
2023/11/12 11:55:22;;;;;;;3.75;2.25;;;7.20;99.90;;;;;;7511236;19;21417;-73
2023/11/12 11:58:02;;;;;;;3.85;2.65;;;7.20;99.90;;;;;;7502478;19;20023;-72
2023/11/12 12:00:35;;;;;;;4.75;2.45;;;7.20;99.90;;;;;;7505063;19;20014;-73
2023/11/12 12:03:17;;;;;;;4.15;2.40;;;7.20;99.90;;;;;;7442999;19;21698;-72
2023/11/12 12:05:50;;;;;;;5.28;2.63;;;7.30;99.90;;;;;;7474633;19;20018;-72
2023/11/12 12:08:22;;;;;;;4.10;2.50;;;7.30;99.90;;;;;;7483006;19;22758;-72
2023/11/12 12:10:55;;;;;;;3.10;2.13;;;7.40;99.90;;;;;;7479911;19;21160;-72
2023/11/12 12:13:27;;;;;;;5.75;2.15;;;7.40;99.90;;;;;;7470700;19;21523;-72
2023/11/12 12:15:59;;;;;;;3.15;2.20;;;7.50;99.90;;;;;;7455539;19;20017;-72
2023/11/12 12:18:32;;;;;;;2.65;1.98;;;7.50;99.90;;;;;;7468847;19;20018;-72
2023/11/12 12:21:05;;;;;;;2.70;2.07;;;7.60;99.90;;;;;;7486364;19;20026;-72
2023/11/12 12:23:38;;;;;;;;;;;7.70;99.90;;;;;;7519012;19;20141;-72
2023/11/12 12:26:10;;;;;;;12.93;2.75;;;7.80;99.90;;;;;;7494121;19;19927;-71
2023/11/12 12:28:43;;;;;;;6.28;2.05;;;8.00;99.90;;;;;;7433770;19;20022;-72
2023/11/12 12:31:15;;;;;;;3.17;2.25;;;8.00;99.90;;;;;;7445358;19;20023;-70
2023/11/12 12:33:59;;;;;;;4.25;2.30;;;8.10;99.90;;;;;;7440977;19;20504;-71
2023/11/12 12:36:34;;;;;;;3.45;2.00;;;8.20;99.90;;;;;;7475974;19;20090;-71
2023/11/12 12:39:09;;;;;;;7.72;3.38;;;8.50;99.90;;;;;;7470049;19;20010;-71
2023/11/12 12:41:44;;;;;;;4.10;2.30;;;9.00;99.90;;;;;;7440548;19;21671;-72
2023/11/12 12:44:23;;;;;;;4.22;2.20;;;9.40;99.90;;;;;;7469147;19;20029;-71
2023/11/12 12:46:55;;;;;;;4.30;2.33;;;9.40;99.90;;;;;;7452924;19;20519;-72
2023/11/12 12:49:33;;;;;;;8.35;2.88;;;9.10;99.90;;;;;;7441431;19;20884;-73
2023/11/12 12:52:22;;;;;;;5.22;2.83;;;8.90;99.90;;;;;;7469106;19;20006;-72
2023/11/12 12:54:55;;;;;;;6.05;2.05;;;8.80;99.90;;;;;;7480619;19;21180;-73
2023/11/12 12:57:30;;;;;;;3.38;2.15;;;8.50;99.90;;;;;;7476146;19;20014;-73
2023/11/12 13:00:09;;;;;;;4.95;2.03;;;8.40;99.90;;;;;;7478663;19;20021;-72
2023/11/12 13:02:41;;;;;;;5.80;2.38;;;8.50;99.90;;;;;;7457332;19;21257;-72
2023/11/12 13:05:19;;;;;;;4.53;2.50;;;8.50;99.90;;;;;;7478245;19;20010;-73
2023/11/12 13:07:52;;;;;;;3.95;2.15;;;8.40;99.90;;;;;;7410658;19;20107;-71
2023/11/12 13:10:25;;;;;;;4.13;1.50;;;8.40;99.90;;;;;;7454247;19;21669;-71
2023/11/12 13:12:59;;;;;;;2.17;1.60;;;8.40;99.90;;;;;;7418895;19;20022;-71
2023/11/12 13:15:32;;;;;;;4.90;1.98;;;8.40;99.90;;;;;;7444004;19;20040;-71
2023/11/12 13:18:05;;;;;;;3.15;1.40;;;8.40;99.90;;;;;;7477516;19;20018;-72
2023/11/12 13:20:39;;;;;;;4.65;2.25;;;8.40;99.90;;;;;;7451328;19;20010;-71
2023/11/12 13:23:11;;;;;;;3.85;1.88;;;8.30;99.90;;;;;;7459454;19;20644;-72
2023/11/12 13:25:43;;;;;;;3.38;1.80;;;8.40;99.90;;;;;;7505939;19;20018;-72
2023/11/12 13:28:16;;;;;;;3.40;1.50;;;8.40;99.90;;;;;;7459761;19;20049;-71
2023/11/12 13:30:48;;;;;;;8.47;1.87;;;8.30;99.90;;;;;;7460738;19;20382;-72
2023/11/12 13:33:21;;;;;;;3.15;1.27;;;8.30;99.90;;;;;;7409460;19;20054;-72